createdAt,value
2018-07-27T00:00:57.000Z,7.33
2018-07-27T00:03:27.036Z,6.03
2018-07-27T00:05:56.735Z,7.53
2018-07-27T00:08:26.618Z,7.50
2018-07-27T00:10:56.601Z,7.67
2018-07-27T00:13:26.652Z,9.37
2018-07-27T00:15:56.696Z,8.27
2018-07-27T00:18:26.787Z,7.20
2018-07-27T00:20:56.816Z,6.30
2018-07-27T00:23:26.903Z,6.80
2018-07-27T00:25:56.952Z,7.13
2018-07-27T00:28:27.008Z,8.53
2018-07-27T00:30:57.047Z,7.70
2018-07-27T00:33:27.115Z,8.37
2018-07-27T00:35:57.163Z,7.53
2018-07-27T00:38:26.870Z,6.97
2018-07-27T00:40:56.720Z,7.40
2018-07-27T00:43:26.748Z,8.10
2018-07-27T00:45:56.820Z,8.37
2018-07-27T00:48:26.847Z,7.87
2018-07-27T00:50:57.043Z,7.30
2018-07-27T00:53:27.103Z,9.00
2018-07-27T00:55:57.344Z,7.37
2018-07-27T00:58:27.563Z,7.23
2018-07-27T01:00:57.655Z,8.20
2018-07-27T01:03:27.685Z,7.07
2018-07-27T01:05:57.724Z,8.17
2018-07-27T01:08:27.830Z,7.20
2018-07-27T01:10:57.877Z,9.37
2018-07-27T01:13:27.995Z,8.00
2018-07-27T01:15:58.063Z,6.73
2018-07-27T01:18:28.143Z,6.73
2018-07-27T01:20:58.272Z,8.63
2018-07-27T01:23:28.316Z,7.70
2018-07-27T01:25:58.400Z,7.53
2018-07-27T01:28:28.488Z,7.73
2018-07-27T01:30:58.520Z,6.57
2018-07-27T01:33:28.589Z,6.87
2018-07-27T01:35:58.596Z,7.43
2018-07-27T01:38:28.704Z,7.07
2018-07-27T01:40:58.736Z,8.57
2018-07-27T01:43:28.836Z,7.63
2018-07-27T01:45:58.888Z,9.43
2018-07-27T01:48:28.978Z,13.17
2018-07-27T01:50:59.068Z,16.37
2018-07-27T01:53:29.196Z,14.90
2018-07-27T01:55:59.308Z,10.60
2018-07-27T01:58:29.393Z,19.80
2018-07-27T02:00:59.544Z,10.67
2018-07-27T02:03:29.648Z,8.40
2018-07-27T02:05:59.747Z,7.43
2018-07-27T02:08:29.796Z,7.60
2018-07-27T02:10:59.847Z,7.27
2018-07-27T02:13:29.847Z,11.33
2018-07-27T02:15:59.960Z,7.37
2018-07-27T02:18:30.037Z,9.13
2018-07-27T02:21:00.076Z,7.97
2018-07-27T02:23:30.183Z,7.67
2018-07-27T02:26:00.292Z,8.23
2018-07-27T02:28:30.300Z,7.83
2018-07-27T02:31:00.359Z,8.40
2018-07-27T02:33:30.376Z,9.83
2018-07-27T02:36:00.477Z,7.20
2018-07-27T02:38:30.528Z,8.60
2018-07-27T02:41:00.601Z,7.87
2018-07-27T02:43:30.649Z,8.97
2018-07-27T02:46:00.716Z,8.80
2018-07-27T02:48:30.832Z,7.90
2018-07-27T02:51:00.893Z,7.43
2018-07-27T02:53:31.150Z,7.07
2018-07-27T02:56:00.847Z,7.73
2018-07-27T02:58:30.708Z,10.23
2018-07-27T03:01:00.796Z,8.17
2018-07-27T03:03:30.852Z,7.90
2018-07-27T03:06:00.808Z,8.50
2018-07-27T03:08:30.852Z,9.40
2018-07-27T03:11:00.892Z,9.33
2018-07-27T03:13:31.053Z,8.10
2018-07-27T03:16:01.119Z,8.53
2018-07-27T03:18:31.252Z,8.50
2018-07-27T03:21:01.340Z,8.33
2018-07-27T03:23:31.336Z,9.23
2018-07-27T03:26:01.732Z,8.97
2018-07-27T03:28:31.811Z,10.17
2018-07-27T03:31:01.895Z,8.73
2018-07-27T03:33:31.946Z,8.77
2018-07-27T03:36:02.028Z,8.13
2018-07-27T03:38:32.172Z,7.93
2018-07-27T03:41:02.228Z,8.40
2018-07-27T03:43:32.284Z,8.30
2018-07-27T03:46:02.307Z,8.77
2018-07-27T03:48:32.380Z,9.53
2018-07-27T03:51:02.440Z,9.20
2018-07-27T03:53:32.510Z,9.40
2018-07-27T03:56:02.591Z,7.93
2018-07-27T03:58:32.636Z,9.00
2018-07-27T04:01:02.687Z,8.47
2018-07-27T04:03:32.735Z,8.47
2018-07-27T04:06:02.784Z,8.53
2018-07-27T04:08:32.890Z,7.73
2018-07-27T04:11:02.992Z,7.70
2018-07-27T04:13:33.044Z,8.53
2018-07-27T04:16:03.089Z,8.53
2018-07-27T04:18:33.147Z,8.33
2018-07-27T04:21:03.256Z,9.13
2018-07-27T04:23:33.318Z,8.67
2018-07-27T04:26:03.448Z,8.90
2018-07-27T04:28:33.457Z,8.77
2018-07-27T04:31:03.533Z,8.33
2018-07-27T04:33:33.616Z,8.40
2018-07-27T04:36:03.641Z,9.23
2018-07-27T04:38:33.692Z,8.43
2018-07-27T04:41:03.800Z,8.40
2018-07-27T04:43:33.984Z,8.63
2018-07-27T04:46:04.120Z,8.90
2018-07-27T04:48:34.163Z,8.77
2018-07-27T04:51:04.312Z,9.40
2018-07-27T04:53:34.336Z,8.33
2018-07-27T04:56:05.044Z,8.23
2018-07-27T04:58:35.148Z,9.37
2018-07-27T05:01:05.213Z,8.47
2018-07-27T05:03:35.299Z,8.40
2018-07-27T05:06:05.348Z,7.80
2018-07-27T05:08:39.596Z,11.43
2018-07-27T05:11:10.292Z,8.20
2018-07-27T05:13:40.352Z,8.50
2018-07-27T05:16:10.436Z,8.33
2018-07-27T05:18:40.443Z,8.80
2018-07-27T05:21:10.496Z,8.07
2018-07-27T05:23:40.560Z,7.80
2018-07-27T05:26:10.592Z,8.23
2018-07-27T05:28:40.809Z,9.10
2018-07-27T05:31:10.848Z,8.17
2018-07-27T05:33:40.891Z,8.80
2018-07-27T05:36:10.979Z,10.30
2018-07-27T05:38:41.039Z,8.40
2018-07-27T05:41:11.126Z,9.97
2018-07-27T05:43:41.160Z,9.93
2018-07-27T05:46:11.204Z,8.93
2018-07-27T05:48:41.320Z,7.27
2018-07-27T05:51:10.991Z,8.23
2018-07-27T05:53:40.812Z,6.00
2018-07-27T05:56:10.552Z,6.37
2018-07-27T05:58:40.316Z,7.47
2018-07-27T06:01:10.431Z,8.93
2018-07-27T06:03:40.464Z,7.93
2018-07-27T06:06:10.812Z,8.10
2018-07-27T06:08:40.944Z,6.80
2018-07-27T06:11:11.061Z,7.77
2018-07-27T06:13:41.192Z,6.87
2018-07-27T06:16:11.538Z,7.33
2018-07-27T06:18:41.616Z,6.60
2018-07-27T06:21:11.740Z,9.20
2018-07-27T06:23:41.832Z,5.37
2018-07-27T06:26:11.995Z,8.50
2018-07-27T06:28:42.044Z,5.83
2018-07-27T06:31:12.160Z,6.73
2018-07-27T06:33:42.383Z,8.30
2018-07-27T06:36:12.452Z,7.53
2018-07-27T06:38:42.199Z,4.70
2018-07-27T06:41:12.004Z,5.93
2018-07-27T06:43:42.056Z,6.20
2018-07-27T06:46:12.096Z,7.73
2018-07-27T06:48:42.183Z,4.57
2018-07-27T06:51:12.231Z,4.97
2018-07-27T06:53:42.476Z,6.87
2018-07-27T06:56:12.548Z,4.60
2018-07-27T06:58:42.309Z,4.90
2018-07-27T07:01:12.044Z,6.63
2018-07-27T07:03:42.132Z,4.77
2018-07-27T07:06:11.957Z,4.50
2018-07-27T07:08:41.828Z,6.27
2018-07-27T07:11:11.896Z,6.27
2018-07-27T07:13:41.927Z,7.67
2018-07-27T07:16:12.083Z,7.40
2018-07-27T07:18:42.152Z,4.80
2018-07-27T07:21:12.224Z,4.90
2018-07-27T07:23:42.283Z,4.83
2018-07-27T07:26:12.555Z,6.57
2018-07-27T07:28:42.483Z,7.50
2018-07-27T07:31:12.580Z,5.90
2018-07-27T07:33:42.632Z,6.17
2018-07-27T07:36:12.691Z,5.93
2018-07-27T07:38:42.756Z,5.40
2018-07-27T07:41:12.819Z,8.77
2018-07-27T07:43:42.959Z,5.37
2018-07-27T07:46:12.663Z,5.67
2018-07-27T07:48:42.466Z,6.43
2018-07-27T07:51:12.616Z,6.13
2018-07-27T07:53:43.676Z,5.70
2018-07-27T07:56:13.784Z,6.57
2018-07-27T07:58:43.967Z,6.33
2018-07-27T08:01:14.008Z,6.83
2018-07-27T08:03:44.084Z,6.33
2018-07-27T08:06:14.156Z,6.53
2018-07-27T08:08:44.231Z,5.60
2018-07-27T08:11:14.361Z,7.43
2018-07-27T08:13:44.468Z,6.47
2018-07-27T08:16:15.169Z,8.27
2018-07-27T08:18:45.968Z,7.53
2018-07-27T08:21:20.884Z,6.63
2018-07-27T08:23:52.560Z,6.83
2018-07-27T08:26:44.153Z,6.73
2018-07-27T08:29:16.439Z,6.47
2018-07-27T08:31:47.645Z,6.63
2018-07-27T08:34:18.371Z,6.75
2018-07-27T08:36:48.980Z,6.67
2018-07-27T08:39:20.021Z,7.35
2018-07-27T08:41:50.505Z,7.47
2018-07-27T08:44:22.055Z,7.00
2018-07-27T08:46:52.348Z,6.85
2018-07-27T08:49:22.363Z,6.40
2018-07-27T08:51:53.427Z,6.97
2018-07-27T08:54:23.512Z,6.97
2018-07-27T08:56:53.626Z,6.20
2018-07-27T08:59:23.694Z,6.97
2018-07-27T09:01:53.833Z,5.95
2018-07-27T09:04:23.911Z,6.87
2018-07-27T09:06:54.111Z,6.58
2018-07-27T09:09:24.140Z,5.45
2018-07-27T09:11:54.208Z,5.80
2018-07-27T09:14:24.271Z,6.90
2018-07-27T09:16:54.336Z,6.17
2018-07-27T09:19:24.452Z,6.42
2018-07-27T09:21:54.492Z,7.47
2018-07-27T09:24:24.690Z,5.30
2018-07-27T09:26:54.668Z,5.40
2018-07-27T09:29:24.732Z,5.45
2018-07-27T09:31:54.884Z,5.20
2018-07-27T09:34:24.953Z,5.80
2018-07-27T09:36:55.046Z,6.55
2018-07-27T09:39:25.111Z,6.97
2018-07-27T09:41:55.196Z,5.50
2018-07-27T09:44:25.240Z,4.80
2018-07-27T09:46:55.336Z,4.62
2018-07-27T09:49:25.391Z,5.58
2018-07-27T09:51:55.510Z,5.20
2018-07-27T09:54:25.568Z,5.42
2018-07-27T09:56:55.644Z,4.87
2018-07-27T09:59:25.746Z,4.35
2018-07-27T10:01:55.555Z,4.90
2018-07-27T10:04:25.344Z,5.55
2018-07-27T10:06:55.384Z,4.78
2018-07-27T10:09:25.459Z,4.47
2018-07-27T10:11:55.515Z,4.87
2018-07-27T10:14:25.593Z,5.00
2018-07-27T10:16:55.592Z,4.67
2018-07-27T10:19:25.703Z,4.92
2018-07-27T10:21:55.445Z,4.45
2018-07-27T10:24:25.288Z,6.08
2018-07-27T10:26:55.341Z,4.17
2018-07-27T10:29:25.388Z,4.83
2018-07-27T10:31:55.453Z,5.00
2018-07-27T10:34:27.616Z,4.60
2018-07-27T10:36:58.484Z,4.45
2018-07-27T10:39:28.552Z,4.42
2018-07-27T10:41:58.603Z,4.25
2018-07-27T10:44:28.656Z,3.87
2018-07-27T10:46:58.733Z,4.08
2018-07-27T10:49:28.755Z,3.85
2018-07-27T10:51:58.895Z,3.92
2018-07-27T10:54:28.975Z,3.12
2018-07-27T10:56:59.232Z,2.98
2018-07-27T10:59:29.299Z,13.83
2018-07-27T11:01:59.380Z,3.45
2018-07-27T11:04:29.460Z,3.05
2018-07-27T11:06:59.528Z,3.10
2018-07-27T11:09:29.606Z,3.02
2018-07-27T11:11:59.644Z,3.65
2018-07-27T11:14:29.708Z,3.22
2018-07-27T11:16:59.508Z,3.00
2018-07-27T11:19:29.248Z,4.42
2018-07-27T11:21:59.364Z,3.10
2018-07-27T11:24:29.416Z,3.47
2018-07-27T11:26:59.572Z,3.77
2018-07-27T11:29:29.660Z,3.47
2018-07-27T11:31:59.790Z,5.00
2018-07-27T11:34:29.928Z,4.17
2018-07-27T11:36:59.956Z,3.47
2018-07-27T11:39:30.033Z,4.78
2018-07-27T11:42:00.108Z,4.03
2018-07-27T11:44:30.168Z,3.67
2018-07-27T11:47:00.236Z,4.00
2018-07-27T11:49:30.315Z,3.35
2018-07-27T11:52:00.339Z,3.80
2018-07-27T11:54:30.397Z,3.90
2018-07-27T11:57:00.471Z,3.92
2018-07-27T11:59:30.580Z,4.40
2018-07-27T12:02:00.580Z,5.12
2018-07-27T12:04:30.692Z,3.87
2018-07-27T12:07:01.037Z,4.50
2018-07-27T12:09:31.048Z,3.87
2018-07-27T12:12:01.064Z,4.40
2018-07-27T12:14:31.222Z,5.75
2018-07-27T12:17:01.222Z,4.92
2018-07-27T12:19:31.283Z,4.62
2018-07-27T12:22:01.351Z,5.20
2018-07-27T12:24:31.420Z,4.50
2018-07-27T12:27:01.496Z,4.72
2018-07-27T12:29:31.559Z,4.50
2018-07-27T12:32:01.624Z,4.65
2018-07-27T12:34:31.704Z,4.45
2018-07-27T12:37:01.764Z,5.08
2018-07-27T12:39:31.837Z,6.45
2018-07-27T12:42:01.880Z,5.67
2018-07-27T12:44:31.976Z,6.20
2018-07-27T12:47:02.024Z,4.40
2018-07-27T12:49:32.127Z,4.17
2018-07-27T12:52:02.156Z,4.20
2018-07-27T12:54:32.212Z,4.40
2018-07-27T12:57:02.264Z,7.17
2018-07-27T12:59:32.380Z,4.40
2018-07-27T13:02:02.412Z,4.00
2018-07-27T13:04:32.456Z,4.47
2018-07-27T13:07:02.163Z,5.15
2018-07-27T13:09:31.964Z,6.40
2018-07-27T13:12:02.036Z,3.80
2018-07-27T13:17:02.211Z,3.92
2018-07-27T13:19:32.281Z,4.50
2018-07-27T13:22:02.391Z,4.50
2018-07-27T13:24:58.309Z,4.25
2018-07-27T13:27:02.497Z,5.95
2018-07-27T13:29:32.579Z,4.37
2018-07-27T13:32:02.638Z,4.22
2018-07-27T13:37:38.536Z,6.80
2018-07-27T13:40:08.629Z,7.30
2018-07-27T13:42:38.703Z,9.58
2018-07-27T13:45:08.791Z,4.22
2018-07-27T13:47:38.931Z,3.87
2018-07-27T13:50:08.968Z,4.03
2018-07-27T13:52:39.020Z,5.67
2018-07-27T13:55:09.161Z,5.30
2018-07-27T13:57:39.328Z,3.60
2018-07-27T14:00:09.420Z,4.65
2018-07-27T14:02:39.477Z,3.85
2018-07-27T14:05:09.544Z,4.17
2018-07-27T14:07:39.635Z,4.17
2018-07-27T14:10:09.640Z,4.53
2018-07-27T14:12:39.720Z,4.30
2018-07-27T14:15:09.832Z,5.92
2018-07-27T14:17:39.860Z,4.70
2018-07-27T14:20:09.916Z,3.92
2018-07-27T14:22:39.977Z,3.92
2018-07-27T14:25:10.024Z,3.70
2018-07-27T14:27:40.080Z,6.72
2018-07-27T14:30:10.148Z,4.97
2018-07-27T14:32:40.585Z,4.28
2018-07-27T14:35:10.909Z,8.00
2018-07-27T14:37:41.104Z,4.40
2018-07-27T14:40:11.161Z,4.83
2018-07-27T14:42:41.213Z,5.42
2018-07-27T14:45:11.326Z,8.13
2018-07-27T14:47:41.395Z,4.35
2018-07-27T14:50:11.409Z,6.08
2018-07-27T14:52:41.475Z,4.60
2018-07-27T14:55:11.572Z,5.37
2018-07-27T14:57:41.615Z,5.50
2018-07-27T15:00:11.787Z,4.65
2018-07-27T15:02:41.506Z,4.17
2018-07-27T15:05:11.395Z,3.95
2018-07-27T15:07:41.433Z,4.22
2018-07-27T15:10:11.619Z,4.78
2018-07-27T15:12:41.680Z,5.53
2018-07-27T15:15:11.833Z,4.25
2018-07-27T15:17:41.856Z,5.45
2018-07-27T15:20:11.943Z,4.70
2018-07-27T15:22:42.068Z,4.83
2018-07-27T15:25:12.220Z,5.03
2018-07-27T15:27:42.267Z,5.33
2018-07-27T15:30:12.361Z,4.65
2018-07-27T15:32:48.097Z,5.08
2018-07-27T15:35:23.602Z,4.42
2018-07-27T15:37:59.076Z,6.60
2018-07-27T15:40:34.477Z,4.10
2018-07-27T15:43:09.971Z,4.67
2018-07-27T15:45:45.639Z,3.95
2018-07-27T15:48:21.269Z,4.35
2018-07-27T15:50:56.963Z,4.60
2018-07-27T15:53:32.439Z,4.42
2018-07-27T15:56:07.930Z,3.70
2018-07-27T15:58:43.082Z,4.05
2018-07-27T16:01:18.636Z,3.60
2018-07-27T16:03:54.344Z,5.20
2018-07-27T16:06:29.867Z,4.75
2018-07-27T16:09:07.447Z,3.90
2018-07-27T16:11:43.100Z,3.70
2018-07-27T16:14:18.660Z,4.75
2018-07-27T16:16:54.758Z,3.75
2018-07-27T16:19:31.952Z,4.37
2018-07-27T16:22:07.590Z,4.50
2018-07-27T16:24:43.174Z,4.70
2018-07-27T16:27:18.784Z,4.40
2018-07-27T16:29:53.971Z,5.17
2018-07-27T16:32:29.464Z,5.10
2018-07-27T16:35:05.349Z,4.65
2018-07-27T16:37:41.144Z,4.83
2018-07-27T16:40:17.049Z,5.20
2018-07-27T16:42:52.420Z,4.50
2018-07-27T16:45:28.424Z,5.25
2018-07-27T16:48:04.032Z,5.72
2018-07-27T16:50:39.664Z,5.25
2018-07-27T16:53:15.496Z,5.33
2018-07-27T16:55:51.004Z,5.37
2018-07-27T16:58:26.705Z,5.60
2018-07-27T17:01:02.289Z,5.80
2018-07-27T17:03:37.943Z,5.12
2018-07-27T17:06:13.638Z,5.53
2018-07-27T17:08:49.306Z,7.47
2018-07-27T17:11:24.966Z,6.20
2018-07-27T17:14:00.568Z,7.40
2018-07-27T17:16:36.177Z,6.70
2018-07-27T17:19:11.731Z,7.12
2018-07-27T17:21:47.344Z,6.07
2018-07-27T17:24:22.867Z,8.13
2018-07-27T17:26:58.412Z,6.35
2018-07-27T17:29:34.082Z,6.92
2018-07-27T17:32:09.683Z,6.67
2018-07-27T17:34:39.712Z,6.07
2018-07-27T17:37:15.296Z,6.55
2018-07-27T17:39:45.328Z,8.33
2018-07-27T17:42:15.432Z,7.87
2018-07-27T17:44:45.492Z,6.63
2018-07-27T17:47:15.588Z,6.80
2018-07-27T17:49:45.652Z,14.33
2018-07-27T17:52:15.752Z,7.87
2018-07-27T17:54:45.813Z,6.07
2018-07-27T17:57:15.901Z,6.30
2018-07-27T17:59:46.081Z,7.50
2018-07-27T18:02:16.256Z,7.53
2018-07-27T18:04:46.328Z,7.17
2018-07-27T18:07:16.482Z,6.57
2018-07-27T18:09:46.607Z,6.60
2018-07-27T18:12:16.712Z,8.80
2018-07-27T18:14:46.775Z,6.63
2018-07-27T18:17:16.856Z,7.20
2018-07-27T18:19:46.948Z,7.20
2018-07-27T18:22:17.100Z,6.67
2018-07-27T18:24:47.052Z,6.77
2018-07-27T18:27:17.176Z,6.50
2018-07-27T18:29:47.296Z,6.30
2018-07-27T18:32:17.396Z,7.37
2018-07-27T18:34:47.549Z,6.57
2018-07-27T18:37:17.653Z,10.33
2018-07-27T18:39:47.656Z,8.70
2018-07-27T18:42:17.804Z,7.90
2018-07-27T18:44:47.879Z,14.50
2018-07-27T18:47:18.235Z,6.63
2018-07-27T18:49:48.292Z,8.90
2018-07-27T18:52:18.427Z,7.03
2018-07-27T18:54:48.500Z,6.77
2018-07-27T18:57:18.600Z,6.97
2018-07-27T18:59:48.635Z,7.57
2018-07-27T19:02:19.116Z,7.33
2018-07-27T19:04:49.232Z,6.67
2018-07-27T19:07:19.278Z,6.37
2018-07-27T19:09:49.451Z,6.53
2018-07-27T19:12:19.584Z,7.07
2018-07-27T19:14:49.707Z,6.67
2018-07-27T19:17:19.792Z,7.77
2018-07-27T19:19:49.858Z,7.10
2018-07-27T19:22:20.014Z,5.97
2018-07-27T19:24:50.104Z,7.70
2018-07-27T19:27:20.209Z,7.50
2018-07-27T19:29:50.344Z,6.83
2018-07-27T19:32:20.407Z,6.77
2018-07-27T19:34:50.571Z,7.93
2018-07-27T19:37:20.642Z,6.97
2018-07-27T19:39:50.680Z,6.50
2018-07-27T19:42:20.888Z,7.73
2018-07-27T19:44:50.956Z,8.93
2018-07-27T19:47:21.049Z,7.63
2018-07-27T19:49:51.424Z,6.70
2018-07-27T19:52:21.508Z,6.83
2018-07-27T19:54:51.575Z,5.77
2018-07-27T19:57:21.736Z,6.40
2018-07-27T19:59:51.800Z,7.63
2018-07-27T20:02:21.922Z,6.97
2018-07-27T20:04:52.100Z,6.30
2018-07-27T20:07:22.188Z,6.60
2018-07-27T20:09:52.288Z,8.07
2018-07-27T20:12:22.398Z,7.27
2018-07-27T20:14:52.464Z,7.60
2018-07-27T20:17:22.527Z,7.40
2018-07-27T20:19:52.592Z,7.13
2018-07-27T20:22:22.652Z,7.30
2018-07-27T20:24:52.708Z,8.23
2018-07-27T20:27:22.836Z,10.90
2018-07-27T20:29:53.152Z,10.40
2018-07-27T20:32:23.232Z,8.30
2018-07-27T20:34:53.279Z,9.77
2018-07-27T20:37:23.589Z,10.13
2018-07-27T20:39:53.772Z,8.93
2018-07-27T20:42:23.824Z,8.53
2018-07-27T20:44:53.937Z,7.80
2018-07-27T20:47:23.988Z,7.90
2018-07-27T20:49:54.068Z,8.40
2018-07-27T20:52:24.080Z,7.80
2018-07-27T20:54:54.264Z,7.87
2018-07-27T20:57:24.384Z,8.93
2018-07-27T20:59:54.523Z,8.53
2018-07-27T21:02:24.648Z,7.80
2018-07-27T21:04:54.725Z,8.33
2018-07-27T21:07:24.992Z,8.40
2018-07-27T21:09:55.140Z,7.77
2018-07-27T21:12:25.171Z,7.77
2018-07-27T21:14:55.236Z,8.00
2018-07-27T21:17:25.248Z,8.33
2018-07-27T21:19:55.254Z,8.93
2018-07-27T21:22:25.312Z,7.83
2018-07-27T21:24:55.356Z,7.77
2018-07-27T21:27:25.340Z,8.83
2018-07-27T21:29:55.440Z,7.57
2018-07-27T21:32:25.952Z,7.80
2018-07-27T21:34:56.127Z,8.77
2018-07-27T21:37:26.488Z,8.67
2018-07-27T21:39:56.944Z,7.40
2018-07-27T21:42:27.064Z,8.20
2018-07-27T21:44:57.357Z,8.10
2018-07-27T21:47:27.415Z,7.90
2018-07-27T21:49:57.476Z,8.20
2018-07-27T21:52:27.531Z,8.07
2018-07-27T21:54:57.647Z,7.87
2018-07-27T21:57:27.732Z,7.63
2018-07-27T21:59:57.838Z,7.93
2018-07-27T22:02:27.900Z,7.40
2018-07-27T22:04:57.959Z,7.87
2018-07-27T22:07:27.997Z,7.70
2018-07-27T22:09:58.035Z,7.60
2018-07-27T22:12:28.176Z,7.30
2018-07-27T22:14:58.224Z,7.77
2018-07-27T22:17:28.300Z,7.43
2018-07-27T22:19:58.396Z,7.33
2018-07-27T22:22:28.452Z,7.50
2018-07-27T22:24:58.572Z,7.17
2018-07-27T22:27:28.628Z,8.33
2018-07-27T22:29:58.707Z,9.13
2018-07-27T22:32:28.740Z,8.00
2018-07-27T22:34:58.799Z,7.60
2018-07-27T22:37:28.815Z,7.10
2018-07-27T22:39:58.896Z,7.20
2018-07-27T22:42:29.000Z,7.17
2018-07-27T22:44:59.076Z,6.90
2018-07-27T22:47:29.196Z,7.77
2018-07-27T22:49:59.263Z,6.67
2018-07-27T22:52:33.556Z,7.13
2018-07-27T22:55:03.636Z,7.13
2018-07-27T22:57:33.771Z,6.57
2018-07-27T23:00:03.872Z,7.67
2018-07-27T23:02:33.915Z,7.50
2018-07-27T23:05:04.323Z,7.80
2018-07-27T23:07:34.423Z,7.03
2018-07-27T23:10:05.999Z,7.40
2018-07-27T23:12:36.032Z,7.67
2018-07-27T23:15:07.805Z,7.27
2018-07-27T23:17:37.908Z,6.97
2018-07-27T23:20:11.752Z,7.67
2018-07-27T23:22:42.456Z,6.60
2018-07-27T23:25:12.519Z,7.00
2018-07-27T23:27:42.539Z,7.53
2018-07-27T23:30:13.435Z,7.07
2018-07-27T23:32:43.526Z,7.57
2018-07-27T23:35:13.608Z,6.90
2018-07-27T23:37:43.696Z,7.17
2018-07-27T23:40:13.727Z,6.93
2018-07-27T23:42:43.716Z,6.97
2018-07-27T23:45:13.752Z,7.17
2018-07-27T23:47:43.772Z,10.67
2018-07-27T23:50:13.883Z,7.47
2018-07-27T23:52:44.027Z,7.83
2018-07-27T23:55:14.328Z,7.40
2018-07-27T23:57:44.388Z,8.77
